createdAt,value
2022-12-08T00:01:55.391Z,34.30
2022-12-08T00:04:58.860Z,31.20
2022-12-08T00:08:08.297Z,34.53
2022-12-08T00:10:57.923Z,31.35
2022-12-08T00:13:48.266Z,32.58
2022-12-08T00:16:38.967Z,31.60
2022-12-08T00:19:29.625Z,31.02
2022-12-08T00:22:18.991Z,30.17
2022-12-08T00:25:09.290Z,29.75
2022-12-08T00:27:58.667Z,25.40
2022-12-08T00:30:48.340Z,27.33
2022-12-08T00:33:39.562Z,26.25
2022-12-08T00:36:29.645Z,26.88
2022-12-08T00:39:19.531Z,30.65
2022-12-08T00:42:15.532Z,28.50
2022-12-08T00:45:05.355Z,30.25
2022-12-08T00:47:54.665Z,30.20
2022-12-08T00:50:45.317Z,38.03
2022-12-08T00:53:34.803Z,33.00
2022-12-08T00:56:24.231Z,34.83
2022-12-08T00:59:13.729Z,25.65
2022-12-08T01:02:06.078Z,25.35
2022-12-08T01:04:55.403Z,31.67
2022-12-08T01:07:46.103Z,32.33
2022-12-08T01:10:37.299Z,25.75
2022-12-08T01:13:26.802Z,28.85
2022-12-08T01:16:23.235Z,41.67
2022-12-08T01:19:14.703Z,76.40
2022-12-08T01:22:04.001Z,39.65
2022-12-08T01:24:54.782Z,37.60
2022-12-08T01:27:44.171Z,45.40
2022-12-08T01:30:33.678Z,62.47
2022-12-08T01:33:23.027Z,29.90
2022-12-08T01:36:22.513Z,33.75
2022-12-08T01:39:18.357Z,37.40
2022-12-08T01:42:22.373Z,45.53
2022-12-08T01:45:22.679Z,43.42
2022-12-08T01:48:18.019Z,73.57
2022-12-08T01:51:08.158Z,42.30
2022-12-08T01:53:57.734Z,45.20
2022-12-08T01:56:56.918Z,41.15
2022-12-08T01:59:55.369Z,43.22
2022-12-08T02:02:54.921Z,40.53
2022-12-08T02:05:45.224Z,45.38
2022-12-08T02:08:36.366Z,41.47
2022-12-08T02:11:25.670Z,56.75
2022-12-08T02:14:16.038Z,46.45
2022-12-08T02:17:17.489Z,38.53
2022-12-08T02:20:41.694Z,46.88
2022-12-08T02:23:43.347Z,34.75
2022-12-08T02:27:32.486Z,32.95
2022-12-08T02:30:26.123Z,32.00
2022-12-08T02:34:00.030Z,35.70
2022-12-08T02:37:00.799Z,27.52
2022-12-08T02:40:01.444Z,32.53
2022-12-08T02:42:59.737Z,34.58
2022-12-08T02:45:55.420Z,35.25
2022-12-08T02:48:46.515Z,36.83
2022-12-08T02:51:35.877Z,36.00
2022-12-08T02:54:25.268Z,39.30
2022-12-08T02:57:33.300Z,44.97
2022-12-08T03:00:26.359Z,40.17
2022-12-08T03:03:25.380Z,45.40
2022-12-08T03:06:30.796Z,29.35
2022-12-08T03:09:30.405Z,79.38
2022-12-08T03:12:27.992Z,45.58
2022-12-08T03:15:21.710Z,42.05
2022-12-08T03:18:15.463Z,30.35
2022-12-08T03:21:07.514Z,32.00
2022-12-08T03:23:58.946Z,32.35
2022-12-08T03:26:53.356Z,29.70
2022-12-08T03:29:42.881Z,36.55
2022-12-08T03:32:38.922Z,30.63
2022-12-08T03:35:32.400Z,25.10
2022-12-08T03:38:21.795Z,26.13
2022-12-08T03:41:22.109Z,30.73
2022-12-08T03:44:11.446Z,26.00
2022-12-08T03:47:00.788Z,28.40
2022-12-08T03:49:50.121Z,27.75
2022-12-08T03:52:39.518Z,27.15
2022-12-08T03:55:28.863Z,29.17
2022-12-08T03:58:19.546Z,42.83
2022-12-08T04:01:08.983Z,47.45
2022-12-08T04:03:58.388Z,100.20
2022-12-08T04:06:47.669Z,28.25
2022-12-08T04:09:37.002Z,26.90
2022-12-08T04:12:26.360Z,32.85
2022-12-08T04:15:17.340Z,59.42
2022-12-08T04:18:07.155Z,30.80
2022-12-08T04:20:56.472Z,26.50
2022-12-08T04:23:46.587Z,25.02
2022-12-08T04:26:35.975Z,34.35
2022-12-08T04:29:25.280Z,44.33
2022-12-08T04:32:15.972Z,28.40
2022-12-08T04:35:05.784Z,35.65
2022-12-08T04:37:55.132Z,31.20
2022-12-08T04:40:44.735Z,25.77
2022-12-08T04:43:34.376Z,25.88
2022-12-08T04:46:23.682Z,62.67
2022-12-08T04:49:14.419Z,31.25
2022-12-08T04:52:03.699Z,64.88
2022-12-08T04:54:53.028Z,62.28
2022-12-08T04:57:42.373Z,39.20
2022-12-08T05:00:31.627Z,36.58
2022-12-08T05:03:26.864Z,26.85
2022-12-08T05:06:19.266Z,61.20
2022-12-08T05:09:08.683Z,37.78
2022-12-08T05:11:58.025Z,29.90
2022-12-08T05:14:48.935Z,37.33
2022-12-08T05:17:38.203Z,22.02
2022-12-08T05:20:29.343Z,52.38
2022-12-08T05:23:20.092Z,20.73
2022-12-08T05:26:09.459Z,20.80
2022-12-08T05:28:59.036Z,20.95
2022-12-08T05:31:48.435Z,19.90
2022-12-08T05:34:38.061Z,51.30
2022-12-08T05:37:27.688Z,25.95
2022-12-08T05:40:18.633Z,24.00
2022-12-08T05:43:08.247Z,25.33
2022-12-08T05:45:57.789Z,30.02
2022-12-08T05:48:47.123Z,47.67
2022-12-08T05:51:36.464Z,24.38
2022-12-08T05:54:25.735Z,24.38
2022-12-08T05:57:16.410Z,46.92
2022-12-08T06:00:07.618Z,30.00
2022-12-08T06:03:01.593Z,21.20
2022-12-08T06:05:51.032Z,40.45
2022-12-08T06:08:40.306Z,24.30
2022-12-08T06:11:32.206Z,25.60
2022-12-08T06:14:23.010Z,36.50
2022-12-08T06:17:12.333Z,23.70
2022-12-08T06:20:02.030Z,22.77
2022-12-08T06:22:51.986Z,23.27
2022-12-08T06:25:41.248Z,43.80
2022-12-08T06:28:31.556Z,26.17
2022-12-08T06:31:25.801Z,36.00
2022-12-08T06:34:15.177Z,24.08
2022-12-08T06:37:04.496Z,25.67
2022-12-08T06:39:53.885Z,46.20
2022-12-08T06:42:45.128Z,24.88
2022-12-08T06:45:34.445Z,30.20
2022-12-08T06:48:25.341Z,23.77
2022-12-08T06:51:17.145Z,30.25
2022-12-08T06:54:06.718Z,32.15
2022-12-08T06:56:56.037Z,42.00
2022-12-08T06:59:45.909Z,46.17
2022-12-08T07:02:35.311Z,36.65
2022-12-08T07:05:26.156Z,26.45
2022-12-08T07:08:15.903Z,23.50
2022-12-08T07:11:09.675Z,23.13
2022-12-08T07:13:59.160Z,23.08
2022-12-08T07:16:48.798Z,23.88
2022-12-08T07:19:38.317Z,65.20
2022-12-08T07:22:29.306Z,52.20
2022-12-08T07:25:19.000Z,32.55
2022-12-08T07:28:12.602Z,29.35
2022-12-08T07:31:02.063Z,25.90
2022-12-08T07:33:51.783Z,25.83
2022-12-08T07:36:41.481Z,37.80
2022-12-08T07:39:32.566Z,28.70
2022-12-08T07:42:22.068Z,23.42
2022-12-08T07:45:12.512Z,22.13
2022-12-08T07:48:01.789Z,20.95
2022-12-08T07:50:51.187Z,28.58
2022-12-08T07:53:42.806Z,24.95
2022-12-08T07:56:34.959Z,23.03
2022-12-08T07:59:24.568Z,26.63
2022-12-08T08:02:24.675Z,22.05
2022-12-08T08:05:15.528Z,23.88
2022-12-08T08:08:05.317Z,24.70
2022-12-08T08:10:54.754Z,20.92
2022-12-08T08:13:46.947Z,25.45
2022-12-08T08:16:38.591Z,20.15
2022-12-08T08:19:29.881Z,21.95
2022-12-08T08:22:19.166Z,20.23
2022-12-08T08:25:10.773Z,27.20
2022-12-08T08:28:00.191Z,26.65
2022-12-08T08:30:51.290Z,24.10
2022-12-08T08:33:40.683Z,24.35
2022-12-08T08:36:30.081Z,26.55
2022-12-08T08:39:20.905Z,26.45
2022-12-08T08:42:11.419Z,27.58
2022-12-08T08:45:00.956Z,26.38
2022-12-08T08:47:51.830Z,27.92
2022-12-08T08:50:42.017Z,28.92
2022-12-08T08:53:31.369Z,46.47
2022-12-08T08:56:21.549Z,33.00
2022-12-08T08:59:12.487Z,32.38
2022-12-08T09:02:01.856Z,44.38
2022-12-08T09:04:52.985Z,39.15
2022-12-08T09:07:42.413Z,37.10
2022-12-08T09:10:31.760Z,46.67
2022-12-08T09:13:22.449Z,34.95
2022-12-08T09:16:13.774Z,40.53
2022-12-08T09:19:03.040Z,40.67
2022-12-08T09:21:55.261Z,45.30
2022-12-08T09:24:44.983Z,41.58
2022-12-08T09:27:34.282Z,34.17
2022-12-08T09:30:23.892Z,40.22
2022-12-08T09:33:14.182Z,40.67
2022-12-08T09:36:05.112Z,43.58
2022-12-08T09:38:58.160Z,42.95
2022-12-08T09:41:52.136Z,82.18
2022-12-08T09:44:51.942Z,48.72
2022-12-08T09:47:47.403Z,46.38
2022-12-08T09:50:42.452Z,60.28
2022-12-08T09:53:38.233Z,77.60
2022-12-08T09:56:35.836Z,42.28
2022-12-08T09:59:30.961Z,44.75
2022-12-08T10:02:24.850Z,46.25
2022-12-08T10:05:16.491Z,40.17
2022-12-08T10:08:14.128Z,33.08
2022-12-08T10:11:12.564Z,51.17
2022-12-08T10:14:20.244Z,38.20
2022-12-08T10:17:21.517Z,29.40
2022-12-08T10:20:19.282Z,31.13
2022-12-08T10:23:24.403Z,47.05
2022-12-08T10:26:17.184Z,32.20
2022-12-08T10:29:13.916Z,39.35
2022-12-08T10:32:18.339Z,26.55
2022-12-08T10:35:11.091Z,28.63
2022-12-08T10:38:02.932Z,25.13
2022-12-08T10:40:55.874Z,30.92
2022-12-08T10:43:48.855Z,23.73
2022-12-08T10:46:40.103Z,24.80
2022-12-08T10:49:33.657Z,40.58
2022-12-08T10:52:25.479Z,20.95
2022-12-08T10:55:20.822Z,21.17
2022-12-08T10:58:30.909Z,24.05
2022-12-08T11:01:25.046Z,23.35
2022-12-08T11:04:20.544Z,36.47
2022-12-08T11:07:11.897Z,36.58
2022-12-08T11:10:01.435Z,43.05
2022-12-08T11:12:51.757Z,35.85
2022-12-08T11:15:42.338Z,30.83
2022-12-08T11:18:41.505Z,48.88
2022-12-08T11:21:39.148Z,33.55
2022-12-08T11:24:36.027Z,34.03
2022-12-08T11:27:27.048Z,33.78
2022-12-08T11:30:20.073Z,32.80
2022-12-08T11:36:11.189Z,25.35
2022-12-08T11:39:06.079Z,32.35
2022-12-08T11:41:58.326Z,28.67
2022-12-08T11:44:55.764Z,40.20
2022-12-08T11:47:55.981Z,27.63
2022-12-08T11:50:51.668Z,32.22
2022-12-08T11:53:51.629Z,43.10
2022-12-08T11:56:46.738Z,40.92
2022-12-08T11:59:41.903Z,38.47
2022-12-08T12:02:34.665Z,51.10
2022-12-08T12:08:57.890Z,42.25
2022-12-08T12:12:16.852Z,45.60
2022-12-08T12:15:38.059Z,43.95
2022-12-08T12:18:33.221Z,48.65
2022-12-08T12:21:27.741Z,52.58
2022-12-08T12:24:26.755Z,40.65
2022-12-08T12:27:29.338Z,33.42
2022-12-08T12:30:25.497Z,33.22
2022-12-08T12:33:18.285Z,30.30
2022-12-08T12:36:11.088Z,30.27
2022-12-08T12:39:03.336Z,27.42
2022-12-08T12:41:56.025Z,29.30
2022-12-08T12:44:46.683Z,28.27
2022-12-08T12:47:55.830Z,40.05
2022-12-08T12:50:47.908Z,27.13
2022-12-08T12:53:52.314Z,30.08
2022-12-08T12:56:56.732Z,29.17
2022-12-08T13:00:07.780Z,32.47
2022-12-08T13:02:59.795Z,34.67
2022-12-08T13:05:53.524Z,40.53
2022-12-08T13:08:52.575Z,39.10
2022-12-08T13:11:52.955Z,36.92
2022-12-08T13:14:51.844Z,38.55
2022-12-08T13:17:48.534Z,40.13
2022-12-08T13:20:47.428Z,42.40
2022-12-08T13:23:49.323Z,43.97
2022-12-08T13:26:46.189Z,58.13
2022-12-08T13:29:37.462Z,45.80
2022-12-08T13:36:23.945Z,48.97
2022-12-08T13:39:22.986Z,57.33
2022-12-08T13:42:25.035Z,41.72
2022-12-08T13:58:29.536Z,38.85
2022-12-08T14:01:22.874Z,38.08
2022-12-08T14:04:42.477Z,42.85
2022-12-08T14:07:28.802Z,62.97
2022-12-08T14:10:23.417Z,40.35
2022-12-08T14:13:15.185Z,41.13
2022-12-08T14:16:04.574Z,39.05
2022-12-08T14:18:54.001Z,34.88
2022-12-08T14:21:49.725Z,33.97
2022-12-08T14:24:39.127Z,33.90
2022-12-08T14:27:33.753Z,30.75
2022-12-08T14:30:27.377Z,28.08
2022-12-08T14:33:18.094Z,24.60
2022-12-08T14:36:10.546Z,22.15
2022-12-08T14:39:01.362Z,27.13
2022-12-08T14:42:02.235Z,22.63
2022-12-08T14:45:07.079Z,37.80
2022-12-08T14:47:56.442Z,22.95
2022-12-08T14:50:57.180Z,20.42
2022-12-08T14:53:53.273Z,29.67
2022-12-08T14:56:51.936Z,22.38
2022-12-08T14:59:44.325Z,19.10
2022-12-08T15:02:34.553Z,17.45
2022-12-08T15:05:28.194Z,16.77
2022-12-08T15:08:17.732Z,19.88
2022-12-08T15:11:34.898Z,16.02
2022-12-08T15:14:34.050Z,15.80
2022-12-08T15:17:35.817Z,15.70
2022-12-08T15:20:35.857Z,17.13
2022-12-08T15:23:31.543Z,29.85
2022-12-08T15:26:24.446Z,16.40
2022-12-08T15:29:20.617Z,14.80
2022-12-08T15:32:16.091Z,14.00
2022-12-08T15:35:05.946Z,16.17
2022-12-08T15:37:55.425Z,16.85
2022-12-08T15:40:44.772Z,15.02
2022-12-08T15:43:34.441Z,17.45
2022-12-08T15:46:23.783Z,19.38
2022-12-08T15:49:19.838Z,17.33
2022-12-08T15:52:16.194Z,18.40
2022-12-08T15:55:06.416Z,17.25
2022-12-08T16:01:06.670Z,33.20
2022-12-08T16:07:21.456Z,25.55
2022-12-08T16:10:18.560Z,33.38
2022-12-08T16:16:43.516Z,50.50
2022-12-08T16:19:32.860Z,40.33
2022-12-08T16:26:00.554Z,28.02
2022-12-08T16:28:54.070Z,33.85
2022-12-08T16:31:44.200Z,26.40
2022-12-08T16:34:33.750Z,26.00
2022-12-08T16:37:27.613Z,28.63
2022-12-08T16:40:17.285Z,33.95
2022-12-08T16:43:05.525Z,39.17
2022-12-08T16:45:55.116Z,43.85
2022-12-08T16:48:44.858Z,41.10
2022-12-08T16:51:34.246Z,37.20
2022-12-08T16:54:25.087Z,35.40
2022-12-08T16:57:14.889Z,32.55
2022-12-08T17:00:06.278Z,33.85
2022-12-08T17:02:56.383Z,36.47
2022-12-08T17:05:45.993Z,39.90
2022-12-08T17:08:35.316Z,45.78
2022-12-08T17:11:30.132Z,48.63
2022-12-08T17:14:19.956Z,49.85
2022-12-08T17:17:09.548Z,45.25
2022-12-08T17:19:58.855Z,44.05
2022-12-08T17:22:48.721Z,46.92
2022-12-08T17:25:38.083Z,41.65
2022-12-08T17:28:51.885Z,42.33
2022-12-08T17:31:38.719Z,44.55
2022-12-08T17:34:28.796Z,41.88
2022-12-08T17:37:18.903Z,42.78
2022-12-08T17:40:10.236Z,43.13
2022-12-08T17:42:59.533Z,35.88
2022-12-08T17:45:50.958Z,40.05
2022-12-08T17:48:40.277Z,36.38
2022-12-08T17:51:29.805Z,38.42
2022-12-08T17:54:20.312Z,39.03
2022-12-08T17:57:09.990Z,45.58
2022-12-08T17:59:59.468Z,53.55
2022-12-08T18:02:50.460Z,57.72
2022-12-08T18:05:39.789Z,57.97
2022-12-08T18:08:29.215Z,57.97
2022-12-08T18:11:20.991Z,61.28
2022-12-08T18:14:10.970Z,56.50
2022-12-08T18:17:00.438Z,52.67
2022-12-08T18:19:51.475Z,52.65
2022-12-08T18:22:41.876Z,47.65
2022-12-08T18:25:31.233Z,47.83
2022-12-08T18:28:20.522Z,49.83
2022-12-08T18:31:11.465Z,67.85
2022-12-08T18:34:00.743Z,46.85
2022-12-08T18:36:51.417Z,46.28
2022-12-08T18:39:41.057Z,49.00
2022-12-08T18:42:30.707Z,49.17
2022-12-08T18:45:22.683Z,47.30
2022-12-08T18:48:12.530Z,47.40
2022-12-08T18:53:53.685Z,48.78
2022-12-08T18:56:43.123Z,58.00
2022-12-08T18:59:32.626Z,54.97
2022-12-08T19:02:22.275Z,54.70
2022-12-08T19:05:14.210Z,56.65
2022-12-08T19:08:03.776Z,71.70
2022-12-08T19:10:54.552Z,73.93
2022-12-08T19:13:43.888Z,83.20
2022-12-08T19:16:33.313Z,79.57
2022-12-08T19:19:22.735Z,83.03
2022-12-08T19:22:12.384Z,107.03
2022-12-08T19:25:01.742Z,104.57
2022-12-08T19:27:52.492Z,110.32
2022-12-08T19:30:41.919Z,108.50
2022-12-08T19:33:31.391Z,111.30
2022-12-08T19:36:23.539Z,107.25
2022-12-08T19:39:36.975Z,103.30
2022-12-08T19:42:43.888Z,94.07
2022-12-08T19:45:37.706Z,103.05
2022-12-08T19:48:27.457Z,94.85
2022-12-08T19:51:16.791Z,104.72
2022-12-08T19:54:06.354Z,106.30
2022-12-08T19:56:55.633Z,92.32
2022-12-08T19:59:45.128Z,96.22
2022-12-08T20:02:36.668Z,104.75
2022-12-08T20:05:26.374Z,100.40
2022-12-08T20:08:16.165Z,111.50
2022-12-08T20:11:05.867Z,116.22
2022-12-08T20:13:55.257Z,107.75
2022-12-08T20:16:44.682Z,104.25
2022-12-08T20:19:35.413Z,98.25
2022-12-08T20:22:24.858Z,125.97
2022-12-08T20:25:15.016Z,120.07
2022-12-08T20:28:04.901Z,115.80
2022-12-08T20:30:54.322Z,100.32
2022-12-08T20:33:43.847Z,91.57
2022-12-08T20:36:34.614Z,100.75
2022-12-08T20:39:24.024Z,92.47
2022-12-08T20:42:14.854Z,92.88
2022-12-08T20:45:06.647Z,80.70
2022-12-08T20:47:56.254Z,72.50
2022-12-08T20:50:45.897Z,76.15
2022-12-08T20:53:36.871Z,71.47
2022-12-08T20:56:27.418Z,69.85
2022-12-08T20:59:18.369Z,73.72
2022-12-08T21:02:08.119Z,58.53
2022-12-08T21:04:57.687Z,61.78
2022-12-08T21:07:47.736Z,68.05
2022-12-08T21:10:43.666Z,61.42
2022-12-08T21:13:33.891Z,66.10
2022-12-08T21:16:23.398Z,75.18
2022-12-08T21:19:13.669Z,68.43
2022-12-08T21:22:03.427Z,79.65
2022-12-08T21:24:53.265Z,80.90
2022-12-08T21:27:44.053Z,83.63
2022-12-08T21:30:33.453Z,86.13
2022-12-08T21:33:23.276Z,82.88
2022-12-08T21:36:15.573Z,84.55
2022-12-08T21:39:11.303Z,71.80
2022-12-08T21:42:21.484Z,80.80
2022-12-08T21:45:16.320Z,90.30
2022-12-08T21:48:11.493Z,106.20
2022-12-08T21:51:06.626Z,78.63
2022-12-08T21:53:56.344Z,76.43
2022-12-08T21:56:46.321Z,61.53
2022-12-08T21:59:35.987Z,68.78
2022-12-08T22:02:26.906Z,70.93
2022-12-08T22:05:18.425Z,71.22
2022-12-08T22:08:08.183Z,65.82
2022-12-08T22:10:57.636Z,51.47
2022-12-08T22:13:47.042Z,52.95
2022-12-08T22:16:36.572Z,56.83
2022-12-08T22:19:27.798Z,45.15
2022-12-08T22:22:17.309Z,51.85
2022-12-08T22:25:11.065Z,45.15
2022-12-08T22:28:00.438Z,46.28
2022-12-08T22:30:49.940Z,44.85
2022-12-08T22:33:40.312Z,41.85
2022-12-08T22:36:31.031Z,44.55
2022-12-08T22:39:20.561Z,51.28
2022-12-08T22:42:10.003Z,57.65
2022-12-08T22:44:59.415Z,50.83
2022-12-08T22:47:48.703Z,55.20
2022-12-08T22:50:38.271Z,61.70
2022-12-08T22:53:29.338Z,62.17
2022-12-08T22:56:19.952Z,72.97
2022-12-08T22:59:09.276Z,61.05
2022-12-08T23:01:58.575Z,63.22
2022-12-08T23:04:48.670Z,68.72
2022-12-08T23:07:38.469Z,70.18
2022-12-08T23:10:29.926Z,73.13
2022-12-08T23:13:20.162Z,86.63
2022-12-08T23:16:10.971Z,85.05
2022-12-08T23:19:00.979Z,74.38
2022-12-08T23:21:50.430Z,73.07
2022-12-08T23:24:40.006Z,72.38
2022-12-08T23:27:30.836Z,75.95
2022-12-08T23:30:20.368Z,73.60
2022-12-08T23:33:09.932Z,79.78
2022-12-08T23:35:59.683Z,74.05
2022-12-08T23:38:49.217Z,79.07
2022-12-08T23:41:38.709Z,87.32
2022-12-08T23:44:29.615Z,97.40
2022-12-08T23:47:19.265Z,117.90
2022-12-08T23:50:10.872Z,118.03
2022-12-08T23:53:00.704Z,111.88
2022-12-08T23:55:50.251Z,116.22
2022-12-08T23:58:40.602Z,106.78
